Time;durP1;ratioP1;P1;durP2;ratioP2;P2;SDS_P1;SDS_P2;PMS_P1;PMS_P2;Temp;Humidity;BMP_temperature;BMP_pressure;BME280_temperature;BME280_humidity;BME280_pressure;Samples;Min_cycle;Max_cycle;Signal;HPM_P1;HPM_P2
2024/01/14 00:00:45;;;;;;;41.00;18.43;;;-1.40;82.30;;;-2.69;91.67;97870.50;5067652;28;20444;-76
2024/01/14 00:03:12;;;;;;;38.20;19.07;;;-1.40;82.40;;;-2.71;91.63;97860.03;5058562;28;20509;-79
2024/01/14 00:05:40;;;;;;;38.93;19.20;;;-1.40;82.10;;;-2.73;92.06;97875.22;5065681;28;20448;-79
2024/01/14 00:08:08;;;;;;;31.90;18.37;;;-1.40;82.10;;;-2.80;91.98;97879.38;5061114;28;20471;-80
2024/01/14 00:10:35;;;;;;;38.37;19.07;;;-1.40;82.00;;;-2.85;91.70;97840.13;5073964;28;20466;-76
2024/01/14 00:13:03;;;;;;;39.80;19.53;;;-1.40;82.20;;;-2.76;91.88;97857.81;5048885;28;20459;-79
2024/01/14 00:15:32;;;;;;;35.97;19.77;;;-1.40;82.20;;;-2.74;91.93;97853.22;5058484;28;21137;-81
2024/01/14 00:17:59;;;;;;;36.50;17.20;;;-1.40;82.30;;;-2.78;92.64;97851.00;5047300;28;20459;-80
2024/01/14 00:20:26;;;;;;;34.90;17.50;;;-1.40;82.60;;;-2.81;91.85;97845.94;5042886;28;20486;-83
2024/01/14 00:22:54;;;;;;;39.90;20.07;;;-1.40;82.40;;;-2.77;91.69;97836.78;5046447;28;20956;-84
2024/01/14 00:25:22;;;;;;;37.97;20.47;;;-1.40;82.50;;;-2.89;92.98;97850.13;5048700;28;20447;-82
2024/01/14 00:28:03;;;;;;;39.67;18.57;;;-1.50;82.60;;;-2.74;92.02;97847.09;5050163;28;20540;-80
2024/01/14 00:30:32;;;;;;;30.73;15.27;;;-1.50;83.00;;;-2.88;92.23;97835.91;5048903;28;20439;-77
2024/01/14 00:33:01;;;;;;;33.87;17.77;;;-1.40;82.50;;;-2.80;92.58;97837.06;5052626;28;20746;-81
2024/01/14 00:35:28;;;;;;;39.93;18.20;;;-1.50;82.80;;;-2.76;91.67;97841.09;5053610;28;20464;-79
2024/01/14 00:37:56;;;;;;;37.73;19.70;;;-1.40;82.30;;;-2.69;91.56;97829.00;5056540;28;20517;-83
2024/01/14 00:40:23;;;;;;;37.50;18.67;;;-1.40;82.20;;;-2.69;91.77;97823.72;5047084;28;20459;-83
2024/01/14 00:42:50;;;;;;;36.20;18.30;;;-1.40;82.20;;;-2.66;91.24;97820.78;5054504;28;20666;-81
2024/01/14 00:45:18;;;;;;;39.90;16.87;;;-1.30;82.10;;;-2.88;91.53;97796.25;5053615;28;20487;-81
2024/01/14 00:47:48;;;;;;;32.47;18.20;;;-1.40;81.80;;;-2.79;91.68;97802.53;5048418;28;20456;-77
2024/01/14 00:50:15;;;;;;;37.13;20.47;;;-1.40;81.90;;;-3.31;91.73;97728.66;5054549;28;20456;-82
2024/01/14 00:52:42;;;;;;;40.93;19.63;;;-1.40;81.80;;;-2.94;92.38;97796.81;5037035;28;20460;-78
2024/01/14 00:55:10;;;;;;;36.83;20.60;;;-1.50;82.00;;;-3.18;92.78;97755.69;5053605;28;20467;-82
2024/01/14 00:57:37;;;;;;;36.97;19.73;;;-1.60;82.60;;;-2.78;92.53;97792.81;5038057;28;20553;-79
2024/01/14 01:00:10;;;;;;;41.70;20.00;;;-1.50;83.20;;;-2.88;92.56;97783.03;5041427;28;20448;-81
2024/01/14 01:02:38;;;;;;;48.23;17.30;;;-1.50;82.20;;;-2.81;92.10;97783.31;5061883;28;20462;-78
2024/01/14 01:05:09;;;;;;;31.50;17.33;;;-1.50;82.50;;;-2.78;92.10;97779.59;5047848;28;20475;-76
2024/01/14 01:07:37;;;;;;;38.40;19.10;;;-1.50;82.50;;;-2.85;92.61;97776.66;5051060;28;20475;-76
2024/01/14 01:10:05;;;;;;;43.63;19.40;;;-1.50;82.30;;;-2.82;92.35;97784.31;5048150;28;20462;-79
2024/01/14 01:12:32;;;;;;;38.57;20.93;;;-1.50;82.60;;;-3.06;93.15;97790.75;5046502;28;20785;-81
2024/01/14 01:15:00;;;;;;;42.60;20.87;;;-1.60;82.60;;;-2.99;93.18;97791.06;5041867;28;20517;-78
2024/01/14 01:17:27;;;;;;;43.30;21.50;;;-1.60;83.30;;;-3.06;93.97;97780.19;5051445;28;21009;-81
2024/01/14 01:19:55;;;;;;;39.87;20.23;;;-1.60;83.30;;;-2.96;93.45;97769.63;5048568;28;20462;-81
2024/01/14 01:22:23;;;;;;;43.43;20.60;;;-1.60;83.40;;;-2.97;93.51;97777.72;5042465;28;20452;-80
2024/01/14 01:24:51;;;;;;;40.73;19.20;;;-1.60;83.30;;;-2.83;93.10;97773.84;5046380;28;20474;-81
2024/01/14 01:27:18;;;;;;;43.50;19.40;;;-1.60;83.90;;;-2.91;92.69;97778.03;5045345;28;20471;-80
2024/01/14 01:29:46;;;;;;;43.50;20.73;;;-1.50;83.40;;;-2.98;93.37;97776.88;5050663;28;20450;-77
2024/01/14 01:32:13;;;;;;;42.70;21.03;;;-1.60;83.30;;;-3.08;93.25;97760.16;5061209;28;20459;-75
2024/01/14 01:34:41;;;;;;;37.83;20.30;;;-1.60;83.40;;;-2.98;93.37;97768.94;5049665;28;20458;-79
2024/01/14 01:37:08;;;;;;;34.47;17.70;;;-1.60;83.50;;;-3.06;93.46;97761.69;5045724;28;20461;-81
2024/01/14 01:39:40;;;;;;;39.07;18.97;;;-1.60;83.30;;;-3.14;94.19;97761.53;5049399;28;20467;-80
2024/01/14 01:42:08;;;;;;;46.17;19.10;;;-1.70;83.30;;;-3.19;94.16;97759.31;5039037;28;20478;-79
2024/01/14 01:44:37;;;;;;;36.93;19.10;;;-1.70;83.80;;;-3.11;93.87;97755.97;5068340;28;20512;-78
2024/01/14 01:47:06;;;;;;;40.93;17.80;;;-1.70;83.90;;;-3.20;94.03;97754.13;5071378;28;20462;-77
2024/01/14 01:49:33;;;;;;;46.43;19.20;;;-1.70;83.60;;;-3.16;94.37;97751.09;5070044;28;20518;-77
2024/01/14 01:52:03;;;;;;;40.60;19.23;;;-1.70;84.00;;;-3.18;94.29;97745.13;5066903;28;20524;-80
2024/01/14 01:54:32;;;;;;;44.30;20.80;;;-1.70;83.80;;;-3.18;94.45;97734.53;5071445;28;20482;-78
2024/01/14 01:57:01;;;;;;;46.60;17.70;;;-1.70;84.20;;;-3.20;94.34;97741.78;5051311;28;20449;-79
2024/01/14 01:59:31;;;;;;;44.40;19.03;;;-1.80;83.80;;;-3.25;94.37;97741.34;5058034;28;20536;-78
2024/01/14 02:02:03;;;;;;;36.40;18.40;;;-1.80;83.40;;;-3.22;93.64;97746.34;5044129;28;20455;-74
2024/01/14 02:04:30;;;;;;;41.80;19.10;;;-1.80;83.70;;;-3.28;94.28;97749.53;5083237;28;20570;-75
2024/01/14 02:06:59;;;;;;;35.93;17.70;;;-1.80;83.70;;;-3.18;94.15;97739.81;5043769;28;20446;-82
2024/01/14 02:09:26;;;;;;;37.27;17.27;;;-1.80;83.70;;;-3.20;93.38;97739.13;5062554;28;20527;-73
2024/01/14 02:11:53;;;;;;;43.43;21.03;;;-1.80;83.50;;;-3.06;93.54;97742.38;5046595;28;20517;-82
2024/01/14 02:14:22;;;;;;;46.30;20.33;;;-1.70;83.90;;;-3.09;93.05;97737.34;5046620;28;20490;-77
2024/01/14 02:16:49;;;;;;;41.10;18.60;;;-1.70;83.60;;;-3.09;93.43;97737.34;5057527;28;20805;-78
2024/01/14 02:19:17;;;;;;;39.67;18.80;;;-1.80;83.70;;;-3.07;93.01;97735.41;5060417;28;20483;-73
2024/01/14 02:21:47;;;;;;;37.77;19.67;;;-1.70;83.10;;;-3.21;93.25;97739.25;5062666;28;20464;-77
2024/01/14 02:24:25;;;;;;;36.53;17.97;;;-1.70;82.60;;;-3.29;93.60;97730.19;5051434;28;20533;-77
2024/01/14 02:26:54;;;;;;;40.83;19.50;;;-1.80;82.90;;;-3.60;92.76;97644.88;5041204;28;20468;-80
2024/01/14 02:29:27;;;;;;;42.10;18.53;;;-1.70;83.50;;;-3.02;92.46;97730.53;5048895;28;20453;-82
2024/01/14 02:31:54;;;;;;;44.97;22.17;;;-1.70;82.80;;;-2.98;91.80;97734.56;5063236;28;20949;-83
2024/01/14 02:34:22;;;;;;;42.57;19.30;;;-1.60;82.60;;;-3.00;92.41;97731.22;5056096;28;20454;-82
2024/01/14 02:36:50;;;;;;;42.03;19.77;;;-1.60;82.30;;;-3.03;90.78;97731.50;5048890;28;20454;-79
2024/01/14 02:39:17;;;;;;;41.87;20.27;;;-1.60;82.40;;;-3.19;92.67;97721.44;5047300;28;20455;-78
2024/01/14 02:41:48;;;;;;;42.90;20.50;;;-1.70;82.20;;;-3.20;93.21;97715.34;5040627;28;20450;-81
2024/01/14 02:44:16;;;;;;;34.63;17.13;;;-1.70;82.70;;;-2.99;92.35;97719.69;5058397;28;20469;-81
2024/01/14 02:46:44;;;;;;;50.87;22.67;;;-1.70;83.00;;;-3.55;91.63;97624.19;5043651;28;20586;-81
2024/01/14 02:49:19;;;;;;;40.70;20.73;;;-1.70;82.60;;;-3.10;92.51;97718.00;5052458;28;20460;-80
2024/01/14 02:51:47;;;;;;;42.30;20.20;;;-1.70;82.30;;;-3.24;92.72;97708.66;5048577;28;20532;-81
2024/01/14 02:54:14;;;;;;;37.57;16.93;;;-1.70;82.30;;;-3.17;93.01;97703.69;5061033;28;20985;-80
2024/01/14 02:56:41;;;;;;;45.40;19.87;;;-1.80;82.70;;;-3.18;92.69;97712.56;5041155;28;20463;-76
2024/01/14 02:59:10;;;;;;;48.37;20.03;;;-1.70;82.50;;;-3.16;92.11;97702.69;5036748;28;21140;-81
2024/01/14 03:01:45;;;;;;;38.00;18.70;;;-1.70;82.60;;;-3.10;92.56;97714.53;5046947;28;21673;-77
2024/01/14 03:04:14;;;;;;;39.67;19.70;;;-1.80;82.60;;;-3.07;91.75;97701.88;5041633;28;20474;-80
2024/01/14 03:06:42;;;;;;;40.83;17.77;;;-1.70;82.40;;;-3.11;92.13;97707.56;5049638;28;20454;-84
2024/01/14 03:09:10;;;;;;;37.73;19.80;;;-1.70;82.40;;;-3.23;92.54;97689.19;5046651;28;20453;-81
2024/01/14 03:11:37;;;;;;;37.83;17.57;;;-1.70;82.40;;;-3.08;91.96;97702.00;5049185;28;20462;-80
2024/01/14 03:14:05;;;;;;;41.43;17.93;;;-1.70;82.30;;;-3.05;92.11;97707.03;5049766;28;20468;-77
2024/01/14 03:16:33;;;;;;;41.30;19.93;;;-1.70;82.20;;;-3.30;92.53;97682.75;5046937;28;20915;-81
2024/01/14 03:19:01;;;;;;;39.27;18.03;;;-1.80;82.10;;;-3.19;92.77;97695.88;5045841;28;20457;-74
2024/01/14 03:21:28;;;;;;;45.50;18.10;;;-1.80;82.40;;;-3.13;91.98;97683.91;5046827;28;20474;-76
2024/01/14 03:23:55;;;;;;;39.90;17.47;;;-1.70;82.50;;;-3.09;91.95;97684.50;5045708;28;20457;-81
2024/01/14 03:26:27;;;;;;;45.60;17.77;;;-1.70;82.00;;;-3.00;92.04;97673.91;5053303;28;20449;-80
2024/01/14 03:28:54;;;;;;;43.60;18.43;;;-1.70;82.00;;;-3.09;90.93;97669.44;5045655;28;20485;-80
2024/01/14 03:31:22;;;;;;;37.87;18.27;;;-1.60;81.80;;;-3.07;91.19;97666.69;5043860;28;20466;-78
2024/01/14 03:33:50;;;;;;;44.47;20.70;;;-1.60;81.60;;;-3.16;91.87;97677.09;5057356;28;20442;-80
2024/01/14 03:36:18;;;;;;;36.83;18.20;;;-1.70;81.40;;;-3.02;91.22;97680.31;5045587;28;20454;-77
2024/01/14 03:38:45;;;;;;;46.90;21.60;;;-1.70;82.10;;;-3.16;91.76;97684.19;5048372;28;20468;-81
2024/01/14 03:41:13;;;;;;;41.77;17.97;;;-1.70;81.60;;;-3.11;91.58;97681.13;5049311;28;20452;-76
2024/01/14 03:43:40;;;;;;;42.83;18.53;;;-1.70;81.80;;;-2.99;91.54;97675.59;5064646;28;20517;-76
2024/01/14 03:46:09;;;;;;;41.60;20.27;;;-1.70;82.10;;;-3.08;91.12;97663.19;5052353;28;20503;-79
2024/01/14 03:48:37;;;;;;;42.23;17.67;;;-1.70;81.40;;;-3.10;91.10;97656.38;5049174;28;20560;-76
2024/01/14 03:51:06;;;;;;;42.30;17.70;;;-1.70;81.50;;;-3.17;91.70;97656.09;5050336;28;20496;-80
2024/01/14 03:53:34;;;;;;;39.33;19.43;;;-1.70;81.60;;;-3.15;91.58;97656.78;5030427;28;20457;-78
2024/01/14 03:56:01;;;;;;;42.40;18.57;;;-1.70;81.70;;;-3.01;91.99;97655.53;5050054;28;20464;-80
2024/01/14 03:58:29;;;;;;;42.63;19.37;;;-1.70;82.00;;;-3.31;92.71;97654.66;5049331;28;20457;-82
2024/01/14 04:00:56;;;;;;;41.80;18.93;;;-1.80;81.80;;;-3.37;92.19;97640.19;5068208;28;20452;-76
2024/01/14 04:03:25;;;;;;;39.23;19.80;;;-1.80;82.10;;;-3.17;92.35;97656.91;5054129;28;20448;-78
2024/01/14 04:05:53;;;;;;;40.93;18.87;;;-1.80;82.10;;;-3.06;91.48;97663.06;5061116;28;20456;-75
2024/01/14 04:08:22;;;;;;;41.23;18.67;;;-1.70;82.10;;;-3.04;90.87;97650.53;5073654;28;20461;-70
2024/01/14 04:10:50;;;;;;;36.90;16.53;;;-1.70;81.70;;;-3.01;91.04;97660.84;5083388;28;20474;-73
2024/01/14 04:13:18;;;;;;;47.37;19.37;;;-1.70;81.80;;;-3.40;92.01;97608.75;5068373;28;20448;-73
2024/01/14 04:15:45;;;;;;;38.73;16.57;;;-1.70;81.70;;;-2.90;90.69;97668.63;5070161;28;20447;-70
2024/01/14 04:18:12;;;;;;;46.47;19.97;;;-1.60;81.80;;;-3.09;91.28;97658.06;5073649;28;20484;-70
2024/01/14 04:20:47;;;;;;;41.83;18.83;;;-1.70;81.20;;;-3.37;92.07;97656.03;5071361;28;20427;-71
2024/01/14 04:23:15;;;;;;;44.80;18.80;;;-1.80;81.30;;;-3.26;92.74;97663.03;5094138;28;20448;-81
2024/01/14 04:25:43;;;;;;;41.50;19.20;;;-1.90;82.30;;;-3.34;92.29;97660.22;5073201;28;20474;-77
2024/01/14 04:28:11;;;;;;;40.00;18.70;;;-1.90;82.00;;;-3.76;92.38;97572.28;5051151;28;20446;-77
2024/01/14 04:30:38;;;;;;;47.43;19.70;;;-1.80;82.40;;;-3.13;91.54;97657.50;5051029;28;21045;-80
2024/01/14 04:33:05;;;;;;;44.47;18.43;;;-1.80;82.00;;;-3.03;91.56;97649.56;5055246;28;20458;-81
2024/01/14 04:35:33;;;;;;;45.33;18.27;;;-1.70;82.20;;;-2.89;90.53;97633.28;5048905;28;20477;-81
2024/01/14 04:38:00;;;;;;;39.37;18.60;;;-1.60;82.00;;;-3.07;90.74;97642.88;5046740;28;20450;-80
2024/01/14 04:40:28;;;;;;;34.67;16.67;;;-1.60;81.10;;;-3.19;91.19;97616.56;5050559;28;20458;-81
2024/01/14 04:42:57;;;;;;;45.20;18.47;;;-1.70;81.10;;;-3.27;91.92;97616.41;5053177;28;20488;-79
2024/01/14 04:45:24;;;;;;;36.30;17.27;;;-1.80;81.50;;;-3.24;91.86;97620.59;5056359;28;20482;-78
2024/01/14 04:47:51;;;;;;;35.60;16.90;;;-1.80;81.30;;;-3.25;91.69;97617.16;5042567;28;20464;-81
2024/01/14 04:50:21;;;;;;;39.60;17.30;;;-1.80;81.60;;;-3.09;91.71;97636.91;5048443;28;20446;-73
2024/01/14 04:52:49;;;;;;;41.30;17.37;;;-1.80;82.10;;;-2.81;90.76;97644.97;5044187;28;20461;-79
2024/01/14 04:55:16;;;;;;;41.40;17.47;;;-1.60;82.40;;;-2.94;90.48;97650.53;5041542;28;20470;-78
2024/01/14 04:57:44;;;;;;;41.60;18.23;;;-1.60;81.40;;;-2.96;90.82;97657.78;5044104;28;20533;-77
2024/01/14 05:00:15;;;;;;;39.93;17.70;;;-1.60;81.20;;;-2.94;90.10;97642.59;5045546;28;20456;-78
2024/01/14 05:02:43;;;;;;;41.30;17.17;;;-1.60;81.10;;;-2.85;90.27;97636.50;5042547;28;20470;-79
2024/01/14 05:05:10;;;;;;;33.60;16.40;;;-1.60;81.10;;;-2.73;88.76;97642.47;5045642;28;20485;-76
2024/01/14 05:07:37;;;;;;;36.47;17.20;;;-1.50;80.50;;;-2.88;89.17;97637.59;5062090;28;20454;-80
2024/01/14 05:10:05;;;;;;;38.10;15.93;;;-1.50;80.30;;;-3.00;89.19;97641.34;5048150;28;20513;-80
2024/01/14 05:12:33;;;;;;;31.63;16.40;;;-1.60;80.00;;;-2.88;89.31;97634.97;5048815;28;20525;-80
2024/01/14 05:15:00;;;;;;;41.30;16.87;;;-1.60;80.40;;;-2.80;88.58;97641.38;5047232;28;21090;-80
2024/01/14 05:17:28;;;;;;;36.07;15.33;;;-1.60;80.30;;;-2.91;89.25;97637.88;5062096;28;20460;-80
2024/01/14 05:19:55;;;;;;;31.47;16.90;;;-1.60;80.20;;;-3.17;89.19;97598.78;5045173;28;20474;-78
2024/01/14 05:22:23;;;;;;;34.63;16.40;;;-1.60;80.10;;;-3.30;90.40;97612.25;5045955;28;20453;-80
2024/01/14 05:24:51;;;;;;;39.07;16.27;;;-1.70;80.20;;;-3.06;90.40;97639.28;5060142;28;20505;-80
2024/01/14 05:27:18;;;;;;;36.70;17.00;;;-1.70;80.70;;;-2.95;89.61;97638.28;5064441;28;20534;-79
2024/01/14 05:29:45;;;;;;;40.63;16.87;;;-1.60;80.40;;;-2.93;89.67;97637.19;5050984;28;20470;-77
2024/01/14 05:32:15;;;;;;;30.27;16.30;;;-1.60;80.30;;;-2.91;89.47;97624.66;5066526;28;20440;-71
2024/01/14 05:34:44;;;;;;;35.80;16.33;;;-1.60;80.30;;;-2.88;89.19;97623.53;5096091;28;20455;-72
2024/01/14 05:37:12;;;;;;;35.53;14.70;;;-1.60;80.10;;;-2.88;89.25;97621.72;5063469;28;20441;-75
2024/01/14 05:39:40;;;;;;;38.67;15.53;;;-1.60;80.30;;;-2.90;88.90;97618.41;5066168;28;20457;-74
2024/01/14 05:42:07;;;;;;;31.13;16.30;;;-1.60;79.90;;;-3.12;89.88;97608.94;5055991;28;20475;-75
2024/01/14 05:44:34;;;;;;;27.23;14.90;;;-1.70;79.90;;;-3.05;89.86;97611.84;5064343;28;20533;-76
2024/01/14 05:47:02;;;;;;;32.27;15.80;;;-1.70;80.20;;;-3.32;90.17;97597.50;5053591;28;20471;-82
2024/01/14 05:49:31;;;;;;;34.43;14.87;;;-1.80;80.00;;;-3.29;90.60;97594.59;5044800;28;20939;-82
2024/01/14 05:52:00;;;;;;;32.17;15.97;;;-1.80;80.30;;;-3.28;91.37;97585.69;5042324;28;20493;-82
2024/01/14 05:54:28;;;;;;;36.27;15.67;;;-1.90;80.80;;;-3.25;91.15;97572.22;5046580;28;20479;-79
2024/01/14 05:56:57;;;;;;;32.17;15.93;;;-1.80;80.80;;;-3.16;90.51;97589.06;5042129;28;20461;-74
2024/01/14 05:59:26;;;;;;;30.57;14.77;;;-1.80;80.80;;;-3.19;89.65;97582.22;5056320;28;20444;-81
2024/01/14 06:01:55;;;;;;;29.43;14.50;;;-1.70;80.50;;;-3.20;90.04;97564.69;5055198;28;20449;-75
2024/01/14 06:04:25;;;;;;;29.50;14.67;;;-1.80;80.20;;;-3.20;90.35;97567.34;5049574;28;20458;-81
2024/01/14 06:06:52;;;;;;;30.67;16.10;;;-1.80;80.40;;;-3.28;90.40;97559.25;5047577;28;20822;-80
2024/01/14 06:09:22;;;;;;;31.10;14.17;;;-1.80;80.20;;;-3.54;91.07;97559.81;5047758;28;20457;-72
2024/01/14 06:11:50;;;;;;;29.67;13.10;;;-2.00;80.30;;;-3.25;90.83;97580.16;5061802;28;20549;-79
2024/01/14 06:14:18;;;;;;;29.08;13.90;;;-1.90;80.90;;;-3.28;90.42;97593.59;5059674;28;20457;-72
2024/01/14 06:16:45;;;;;;;32.97;15.00;;;-1.80;80.30;;;-3.18;89.64;97591.81;5056114;28;20202;-74
2024/01/14 06:19:13;;;;;;;31.57;14.53;;;-1.80;80.10;;;-3.26;89.53;97578.47;5062288;28;20468;-73
2024/01/14 06:21:42;;;;;;;26.97;12.50;;;-1.80;80.10;;;-3.17;89.64;97580.28;5052746;28;20469;-72
2024/01/14 06:24:10;;;;;;;23.77;12.23;;;-1.80;80.10;;;-3.05;89.46;97585.44;5050857;28;20472;-71
2024/01/14 06:26:39;;;;;;;33.40;14.07;;;-1.70;80.00;;;-3.11;89.29;97578.03;5036574;28;20480;-72
2024/01/14 06:29:06;;;;;;;31.80;13.60;;;-1.70;80.10;;;-2.88;88.02;97581.22;5060412;28;20969;-73
2024/01/14 06:31:33;;;;;;;23.47;12.33;;;-1.60;80.00;;;-2.95;88.03;97602.13;5046469;28;20460;-72
2024/01/14 06:34:01;;;;;;;27.63;11.67;;;-1.60;79.40;;;-3.05;88.10;97574.84;5047328;28;20544;-72
2024/01/14 06:36:28;;;;;;;24.67;13.20;;;-1.60;79.40;;;-3.10;88.79;97579.72;5040870;28;20773;-71
2024/01/14 06:38:55;;;;;;;24.27;10.93;;;-1.70;79.10;;;-4.02;88.20;97451.38;5060305;28;20483;-73
2024/01/14 06:41:24;;;;;;;24.67;11.80;;;-1.70;79.10;;;-3.08;88.27;97591.00;5050052;28;20461;-75
2024/01/14 06:43:53;;;;;;;22.90;12.10;;;-1.70;79.10;;;-3.11;88.55;97580.69;5039575;28;20465;-75
2024/01/14 06:46:21;;;;;;;29.17;12.57;;;-1.70;79.20;;;-3.01;88.76;97592.09;5044253;28;20473;-76
2024/01/14 06:48:48;;;;;;;26.50;12.20;;;-1.70;79.60;;;-2.97;88.08;97598.75;5048294;28;20442;-75
2024/01/14 06:51:16;;;;;;;27.07;14.13;;;-1.70;79.40;;;-2.92;88.02;97585.97;5058986;28;20502;-77
2024/01/14 06:53:43;;;;;;;20.10;11.50;;;-1.60;79.40;;;-3.06;87.99;97584.56;5053584;28;20457;-76
2024/01/14 06:56:11;;;;;;;30.73;13.77;;;-1.70;78.80;;;-3.15;88.06;97588.91;5046411;28;20809;-76
2024/01/14 06:58:39;;;;;;;26.43;12.83;;;-1.70;78.80;;;-3.33;89.03;97598.47;5049116;28;20570;-72
2024/01/14 07:01:08;;;;;;;26.90;12.80;;;-1.80;78.90;;;-3.38;89.30;97585.69;5051205;28;20447;-72
2024/01/14 07:03:35;;;;;;;28.63;12.50;;;-1.90;79.10;;;-3.32;88.69;97595.72;5052783;28;20525;-73
2024/01/14 07:06:05;;;;;;;23.27;11.27;;;-1.90;79.20;;;-3.29;89.61;97584.00;5040941;28;20846;-73
2024/01/14 07:08:32;;;;;;;29.30;12.10;;;-2.00;79.70;;;-3.30;89.47;97590.28;5041682;28;20505;-73
2024/01/14 07:11:00;;;;;;;29.73;12.50;;;-1.90;79.80;;;-3.13;88.67;97562.34;5037916;28;20460;-72
2024/01/14 07:13:27;;;;;;;22.17;11.93;;;-1.80;79.80;;;-3.05;88.36;97570.38;5046920;28;20457;-72
2024/01/14 07:15:55;;;;;;;31.50;13.23;;;-1.70;79.50;;;-2.99;87.83;97575.13;5044024;28;20960;-72
2024/01/14 07:18:24;;;;;;;22.07;11.10;;;-1.60;79.00;;;-3.07;88.10;97574.16;5040480;28;20450;-72
2024/01/14 07:20:51;;;;;;;22.63;12.13;;;-1.70;78.80;;;-3.20;88.36;97572.63;5049122;28;20448;-73
2024/01/14 07:23:19;;;;;;;27.33;12.57;;;-1.70;78.90;;;-3.06;88.00;97574.00;5043484;28;20446;-72
2024/01/14 07:25:46;;;;;;;25.40;11.60;;;-1.70;79.10;;;-3.33;88.46;97567.63;5040427;28;20482;-73
2024/01/14 07:28:14;;;;;;;23.50;11.60;;;-1.80;78.80;;;-3.19;88.22;97574.28;5041693;28;20489;-73
2024/01/14 07:30:41;;;;;;;22.00;10.90;;;-1.80;78.90;;;-3.66;88.29;97492.25;5046228;28;20476;-74
2024/01/14 07:33:09;;;;;;;23.00;12.33;;;-1.80;79.00;;;-3.13;88.68;97562.34;5048916;28;20458;-74
2024/01/14 07:35:37;;;;;;;22.50;11.37;;;-1.80;79.10;;;-3.14;88.14;97563.31;5057951;28;20455;-74
2024/01/14 07:38:05;;;;;;;24.57;11.20;;;-1.70;79.00;;;-3.81;88.47;97490.00;5042576;28;20505;-73
2024/01/14 07:40:32;;;;;;;21.27;11.10;;;-1.80;78.80;;;-3.05;88.11;97564.28;5040372;28;20529;-72
2024/01/14 07:42:59;;;;;;;25.00;11.20;;;-1.70;79.10;;;-2.90;87.07;97562.88;5058980;28;20721;-72
2024/01/14 07:45:26;;;;;;;25.83;12.20;;;-1.60;78.80;;;-3.00;87.01;97560.25;5051101;28;20542;-73
2024/01/14 07:47:53;;;;;;;19.17;10.33;;;-1.60;78.20;;;-3.07;87.23;97551.19;5034719;28;20868;-73
2024/01/14 07:50:21;;;;;;;27.03;11.70;;;-1.60;78.50;;;-3.18;87.38;97549.53;5054908;28;20461;-72
2024/01/14 07:52:50;;;;;;;19.37;9.80;;;-1.70;78.00;;;-2.99;86.84;97558.41;5043071;28;21250;-72
2024/01/14 07:55:17;;;;;;;27.50;11.43;;;-1.70;78.40;;;-2.82;85.99;97559.53;5048885;28;20933;-72
2024/01/14 07:57:44;;;;;;;23.70;12.67;;;-1.50;78.60;;;-2.77;85.67;97551.97;5050232;28;20468;-72
2024/01/14 08:00:13;;;;;;;18.53;10.00;;;-1.40;78.10;;;-2.87;85.37;97552.00;5053580;28;20456;-71
2024/01/14 08:02:41;;;;;;;18.90;9.63;;;-1.50;77.50;;;-2.92;85.73;97553.41;5038304;28;20534;-72
2024/01/14 08:05:09;;;;;;;25.97;11.37;;;-1.50;77.60;;;-2.91;85.95;97553.28;5044525;28;20451;-71
2024/01/14 08:07:36;;;;;;;23.30;12.37;;;-1.50;77.50;;;-2.77;86.56;97554.63;5053958;28;20512;-72
2024/01/14 08:10:06;;;;;;;22.20;11.10;;;-1.40;78.20;;;-2.68;88.03;97538.91;5058391;28;20457;-71
2024/01/14 08:12:34;;;;;;;23.90;12.13;;;-1.30;79.50;;;-3.16;85.90;97497.38;5057333;28;20484;-74
2024/01/14 08:15:02;;;;;;;22.57;11.10;;;-1.40;77.90;;;-2.91;86.31;97563.84;5051686;28;20482;-72
2024/01/14 08:17:29;;;;;;;24.60;11.20;;;-1.50;77.60;;;-2.87;85.54;97546.72;5039925;28;20459;-71
2024/01/14 08:19:56;;;;;;;22.57;11.37;;;-1.40;77.30;;;-2.72;84.49;97554.22;5042008;28;20453;-73
2024/01/14 08:22:24;;;;;;;23.93;10.90;;;-1.40;77.10;;;-2.59;84.28;97544.16;5036941;28;20949;-72
2024/01/14 08:24:51;;;;;;;20.60;10.13;;;-1.30;77.10;;;-2.61;84.18;97567.28;5061372;28;20461;-71
2024/01/14 08:27:20;;;;;;;21.30;11.00;;;-1.20;76.70;;;-2.56;84.49;97554.44;5051482;28;20477;-72
2024/01/14 08:29:48;;;;;;;22.07;11.23;;;-1.20;76.80;;;-2.52;83.14;97555.00;5046156;28;20989;-73
2024/01/14 08:32:15;;;;;;;23.10;11.40;;;-1.20;76.60;;;-2.52;83.72;97557.66;5058126;28;20463;-71
2024/01/14 08:34:43;;;;;;;24.50;11.43;;;-1.20;76.50;;;-2.45;83.81;97550.78;5038615;28;20469;-79
2024/01/14 08:37:12;;;;;;;24.77;12.03;;;-1.10;76.40;;;-2.76;84.72;97563.41;5043317;28;20463;-76
2024/01/14 08:39:39;;;;;;;22.70;11.90;;;-1.20;76.30;;;-2.69;85.14;97553.09;5049080;28;20516;-81
2024/01/14 08:42:07;;;;;;;24.90;11.00;;;-1.30;76.80;;;-2.72;83.97;97522.47;5052273;28;20513;-75
2024/01/14 08:44:36;;;;;;;21.30;11.57;;;-1.20;76.60;;;-2.44;84.44;97556.94;5052464;28;20448;-79
2024/01/14 08:47:03;;;;;;;28.07;11.10;;;-1.20;76.80;;;-2.14;82.33;97547.06;5047720;28;20534;-78
2024/01/14 08:49:31;;;;;;;22.10;12.77;;;-1.00;76.40;;;-2.60;83.10;97553.06;5043158;28;20454;-69
2024/01/14 08:51:58;;;;;;;23.53;11.67;;;-1.00;75.80;;;-2.25;82.91;97560.47;5033276;28;20556;-68
2024/01/14 08:54:26;;;;;;;22.90;10.43;;;-1.10;76.30;;;-1.96;81.42;97548.94;5059774;28;20979;-71
2024/01/14 08:56:53;;;;;;;22.20;11.30;;;-0.80;76.30;;;-1.86;80.10;97557.66;5044093;28;20467;-70
2024/01/14 08:59:22;;;;;;;24.80;10.80;;;-0.60;75.20;;;-2.12;80.22;97555.69;5045875;28;20457;-71
2024/01/14 09:01:51;;;;;;;20.53;11.23;;;-0.70;74.70;;;-2.00;81.02;97554.53;5035671;28;20575;-71
2024/01/14 09:04:19;;;;;;;22.40;11.03;;;-0.70;75.10;;;-2.22;79.94;97520.47;5045390;28;20456;-73
2024/01/14 09:06:47;;;;;;;19.20;10.30;;;-0.70;74.40;;;-2.30;81.30;97552.97;5061825;28;20652;-70
2024/01/14 09:09:14;;;;;;;21.07;9.53;;;-0.80;74.60;;;-2.16;81.00;97554.31;5045840;28;20457;-71
2024/01/14 09:11:41;;;;;;;20.03;11.10;;;-0.80;74.80;;;-2.37;81.32;97554.53;5046690;28;20575;-69
2024/01/14 09:14:09;;;;;;;18.23;11.10;;;-0.90;74.70;;;-2.58;83.27;97545.81;5047197;28;20459;-71
2024/01/14 09:16:36;;;;;;;19.80;10.50;;;-1.00;75.10;;;-2.19;82.05;97549.31;5039028;28;20465;-70
2024/01/14 09:19:05;;;;;;;20.00;9.80;;;-0.90;75.40;;;-2.15;81.66;97556.00;5054456;28;20889;-71
2024/01/14 09:21:33;;;;;;;30.87;11.23;;;-0.80;74.90;;;-2.06;81.15;97552.44;5054570;28;20513;-71
2024/01/14 09:24:00;;;;;;;21.57;11.27;;;-0.70;75.00;;;-2.29;81.88;97555.47;5060155;28;20495;-71
2024/01/14 09:26:28;;;;;;;24.03;11.83;;;-0.80;74.80;;;-2.20;82.13;97552.94;5038890;28;20485;-71
2024/01/14 09:28:55;;;;;;;25.03;11.93;;;-0.90;75.50;;;-2.15;81.78;97550.69;5043204;28;20467;-71
2024/01/14 09:31:27;;;;;;;25.90;13.10;;;-0.90;75.10;;;-1.98;81.57;97556.19;5038663;28;20480;-86
2024/01/14 09:33:54;;;;;;;28.53;13.97;;;-0.80;75.30;;;-2.34;81.70;97560.38;5068584;28;20533;-78
2024/01/14 09:36:23;;;;;;;29.00;13.03;;;-0.80;74.90;;;-2.24;82.49;97572.72;5050450;28;20458;-80
2024/01/14 09:38:50;;;;;;;22.43;11.30;;;-0.90;75.10;;;-2.18;80.88;97537.75;5050030;28;20450;-78
2024/01/14 09:41:32;;;;;;;25.60;12.43;;;-0.80;74.90;;;-2.34;81.49;97563.03;5046920;28;20447;-75
2024/01/14 09:44:01;;;;;;;25.60;13.60;;;-0.90;74.70;;;-2.05;81.62;97566.53;5039461;28;20554;-76
2024/01/14 09:46:28;;;;;;;25.97;13.20;;;-0.80;75.30;;;-2.17;80.92;97558.78;5035207;28;20477;-78
2024/01/14 09:48:57;;;;;;;27.70;13.40;;;-0.80;74.90;;;-2.35;80.51;97479.31;5035416;28;20520;-81
2024/01/14 09:51:30;;;;;;;22.53;12.57;;;-0.70;74.70;;;-2.01;81.06;97547.56;5049816;28;20468;-76
2024/01/14 09:53:59;;;;;;;27.47;12.30;;;-0.70;74.70;;;-1.60;79.51;97549.84;5035278;28;20454;-82
2024/01/14 09:56:32;;;;;;;25.47;13.00;;;-0.40;74.50;;;-1.78;79.38;97541.84;5040121;28;20470;-85
2024/01/14 09:59:01;;;;;;;23.80;12.20;;;-0.40;74.10;;;-1.94;80.48;97537.22;5044207;28;20467;-80
2024/01/14 10:01:32;;;;;;;24.40;11.57;;;-0.50;74.30;;;-1.49;78.55;97532.88;5067474;28;20461;-79
2024/01/14 10:04:01;;;;;;;21.23;12.10;;;-0.30;74.20;;;-1.31;77.53;97537.34;5075414;28;21018;-80
2024/01/14 10:06:30;;;;;;;22.70;12.60;;;-0.10;73.60;;;-1.82;77.43;97468.13;5043569;28;20545;-85
2024/01/14 10:08:59;;;;;;;15.00;9.33;;;-0.20;73.30;;;-1.75;79.06;97536.25;5055094;28;20462;-83